SBIH

Itaituba Airport

Itaituba, Brazil
TAF SBIH 221600Z 2218/2306 00000KT 9999 FEW025 TX35/2218Z TN20/2306Z BECMG 2219/2221 CAVOK RMK PDY
Issued Valid From Valid To
Jul-22 @ 16:00 UTC
(4 hours ago)
Jul-22 @ 18:00 UTC
(2 hours ago)
Jul-23 @ 06:00 UTC
(in 10 hours)
Expired Click to View Jul-22 @ 18:00 to Jul-22 @ 19:00
TAF SBIH 221600Z 2218/2306 00000KT 9999 FEW025 TX35/2218Z TN20/2306Z
Visibility Clouds
10,000+ meters
  • Few at 2,500' AGL
Becoming Jul-22 @ 19:00 to Jul-23 @ 06:00
BECMG 2219/2221 CAVOK RMK PDY
Visibility Clouds Conditions
10,000+ meters
  • No significant clouds
TAF SBIH 221600Z 2218/2306 00000KT 9999 FEW025 TX35/2218Z TN20/2306Z BECMG 2219/2221 CAVOK RMK PDY
Issued Jul-22 @ 16:00 UTC
(4 hours ago)
Valid From Jul-22 @ 18:00 UTC
(2 hours ago)
Valid To Jul-23 @ 06:00 UTC
(in 10 hours)
Jul-22 @ 18:00 - Jul-22 @ 19:00
Clouds
  • Few at 2,500' AGL
Becoming Jul-22 @ 19:00 - Jul-23 @ 06:00
Clouds
  • No significant clouds
Conditions